createdAt,value
2017-06-11T00:00:34.189Z,13.60
2017-06-11T00:03:00.421Z,13.60
2017-06-11T00:05:26.705Z,13.50
2017-06-11T00:07:52.940Z,13.50
2017-06-11T00:10:19.201Z,13.50
2017-06-11T00:12:45.474Z,13.50
2017-06-11T00:15:11.754Z,13.30
2017-06-11T00:17:38.014Z,13.30
2017-06-11T00:20:19.895Z,13.30
2017-06-11T00:22:46.149Z,13.30
2017-06-11T00:25:12.389Z,13.20
2017-06-11T00:27:38.641Z,13.20
2017-06-11T00:30:04.897Z,13.20
2017-06-11T00:32:31.152Z,13.20
2017-06-11T00:34:58.120Z,13.10
2017-06-11T00:37:24.373Z,13.10
2017-06-11T00:39:50.622Z,13.00
2017-06-11T00:42:16.858Z,13.00
2017-06-11T00:44:43.154Z,13.00
2017-06-11T00:47:09.401Z,12.90
2017-06-11T00:49:35.653Z,12.90
2017-06-11T00:52:01.896Z,12.90
2017-06-11T00:54:28.156Z,12.90
2017-06-11T00:56:54.432Z,12.80
2017-06-11T00:59:20.672Z,12.70
2017-06-11T01:01:46.904Z,12.70
2017-06-11T01:04:13.133Z,12.70
2017-06-11T01:06:39.397Z,12.70
2017-06-11T01:09:05.650Z,12.80
2017-06-11T01:11:38.980Z,12.70
2017-06-11T01:14:05.241Z,12.70
2017-06-11T01:16:32.229Z,12.70
2017-06-11T01:18:58.494Z,12.60
2017-06-11T01:21:24.722Z,12.60
2017-06-11T01:23:50.981Z,12.60
2017-06-11T01:26:17.222Z,12.50
2017-06-11T01:28:43.480Z,12.60
2017-06-11T01:31:09.760Z,12.60
2017-06-11T01:33:36.785Z,12.50
2017-06-11T01:36:03.033Z,12.50
2017-06-11T01:38:30.045Z,12.40
2017-06-11T01:40:56.288Z,12.40
2017-06-11T01:43:22.600Z,12.40
2017-06-11T01:45:48.864Z,12.40
2017-06-11T01:48:15.873Z,12.30
2017-06-11T01:50:42.133Z,12.30
2017-06-11T01:53:08.432Z,12.30
2017-06-11T01:55:34.678Z,12.40
2017-06-11T01:58:00.904Z,12.40
2017-06-11T02:00:27.139Z,12.30
2017-06-11T02:02:53.397Z,12.30
2017-06-11T02:05:20.368Z,12.20
2017-06-11T02:07:46.621Z,12.20
2017-06-11T02:10:12.877Z,12.20
2017-06-11T02:12:39.096Z,12.20
2017-06-11T02:15:05.341Z,12.20
2017-06-11T02:17:31.570Z,12.10
2017-06-11T02:19:57.788Z,12.10
2017-06-11T02:22:24.057Z,12.10
2017-06-11T02:24:50.292Z,12.00
2017-06-11T02:27:16.555Z,12.00
2017-06-11T02:29:42.803Z,12.00
2017-06-11T02:32:09.066Z,12.00
2017-06-11T02:34:36.025Z,12.00
2017-06-11T02:37:02.254Z,11.90
2017-06-11T02:39:28.504Z,11.90
2017-06-11T02:41:54.775Z,11.90
2017-06-11T02:44:21.028Z,11.90
2017-06-11T02:46:47.273Z,11.90
2017-06-11T02:49:13.520Z,11.90
2017-06-11T02:51:39.762Z,11.80
2017-06-11T02:54:06.032Z,11.80
2017-06-11T02:56:33.015Z,11.80
2017-06-11T02:58:59.256Z,11.70
2017-06-11T03:01:25.500Z,11.80
2017-06-11T03:03:51.733Z,11.80
2017-06-11T03:06:17.976Z,11.80
2017-06-11T03:08:44.262Z,11.70
2017-06-11T03:11:17.561Z,11.70
2017-06-11T03:13:43.777Z,11.80
2017-06-11T03:16:10.032Z,11.80
2017-06-11T03:18:36.289Z,11.80
2017-06-11T03:21:02.514Z,11.80
2017-06-11T03:23:28.747Z,11.70
2017-06-11T03:25:55.013Z,11.70
2017-06-11T03:28:21.261Z,11.60
2017-06-11T03:30:47.518Z,11.60
2017-06-11T03:33:13.768Z,11.60
2017-06-11T03:35:40.016Z,11.60
2017-06-11T03:38:06.991Z,11.60
2017-06-11T03:40:33.243Z,11.60
2017-06-11T03:42:59.521Z,11.60
2017-06-11T03:45:26.545Z,11.70
2017-06-11T03:47:52.829Z,11.70
2017-06-11T03:50:19.066Z,11.60
2017-06-11T03:52:45.326Z,11.60
2017-06-11T03:55:11.556Z,11.80
2017-06-11T03:57:37.813Z,11.70
2017-06-11T04:00:04.804Z,11.80
2017-06-11T04:02:31.072Z,11.80
2017-06-11T04:04:57.294Z,11.80
2017-06-11T04:07:23.555Z,11.90
2017-06-11T04:09:50.528Z,11.90
2017-06-11T04:12:16.773Z,11.90
2017-06-11T04:14:43.017Z,11.90
2017-06-11T04:17:09.265Z,12.00
2017-06-11T04:19:35.509Z,12.00
2017-06-11T04:22:02.479Z,12.00
2017-06-11T04:24:28.705Z,12.00
2017-06-11T04:26:54.961Z,12.10
2017-06-11T04:29:21.202Z,12.10
2017-06-11T04:31:47.453Z,12.20
2017-06-11T04:34:13.716Z,12.20
2017-06-11T04:36:39.958Z,12.30
2017-06-11T04:39:06.213Z,12.40
2017-06-11T04:41:32.453Z,12.40
2017-06-11T04:43:58.704Z,12.40
2017-06-11T04:46:25.686Z,12.50
2017-06-11T04:48:51.961Z,12.50
2017-06-11T04:51:18.237Z,12.50
2017-06-11T04:53:44.490Z,12.60
2017-06-11T04:56:10.772Z,12.70
2017-06-11T04:58:37.034Z,12.80
2017-06-11T05:01:03.264Z,12.90
2017-06-11T05:03:29.505Z,13.00
2017-06-11T05:05:55.724Z,13.00
2017-06-11T05:08:21.973Z,13.20
2017-06-11T05:10:48.213Z,13.30
2017-06-11T05:13:14.462Z,13.40
2017-06-11T05:15:40.721Z,13.60
2017-06-11T05:18:06.977Z,13.70
2017-06-11T05:20:33.245Z,13.90
2017-06-11T05:22:59.477Z,14.00
2017-06-11T05:25:25.737Z,14.20
2017-06-11T05:28:07.156Z,14.30
2017-06-11T05:30:33.413Z,14.50
2017-06-11T05:32:59.649Z,14.70
2017-06-11T05:35:25.866Z,14.90
2017-06-11T05:37:52.123Z,15.00
2017-06-11T05:40:19.076Z,15.40
2017-06-11T05:42:46.124Z,15.50
2017-06-11T05:45:12.360Z,15.50
2017-06-11T05:47:38.622Z,15.90
2017-06-11T05:50:04.856Z,16.00
2017-06-11T05:52:31.109Z,16.20
2017-06-11T05:54:57.373Z,16.30
2017-06-11T05:57:23.607Z,16.40
2017-06-11T05:59:49.905Z,16.50
2017-06-11T06:02:16.144Z,16.70
2017-06-11T06:04:43.132Z,17.00
2017-06-11T06:07:09.387Z,16.90
2017-06-11T06:09:35.630Z,17.00
2017-06-11T06:12:01.913Z,17.10
2017-06-11T06:14:28.160Z,17.20
2017-06-11T06:16:54.438Z,17.30
2017-06-11T06:19:21.455Z,17.50
2017-06-11T06:21:47.689Z,17.50
2017-06-11T06:24:13.966Z,17.60
2017-06-11T06:26:40.230Z,17.60
2017-06-11T06:29:06.485Z,17.70
2017-06-11T06:31:32.781Z,17.80
2017-06-11T06:33:59.077Z,17.90
2017-06-11T06:36:25.326Z,18.10
2017-06-11T06:38:51.568Z,18.20
2017-06-11T06:41:17.824Z,18.30
2017-06-11T06:43:44.097Z,18.50
2017-06-11T06:46:11.082Z,18.80
2017-06-11T06:48:37.337Z,18.80
2017-06-11T06:51:03.601Z,19.00
2017-06-11T06:53:29.854Z,19.20
2017-06-11T06:55:56.133Z,19.60
2017-06-11T06:58:22.358Z,20.20
2017-06-11T07:00:48.614Z,20.80
2017-06-11T07:03:14.882Z,21.50
2017-06-11T07:05:41.113Z,21.90
2017-06-11T07:08:07.362Z,22.80
2017-06-11T07:10:33.617Z,23.50
2017-06-11T07:13:00.587Z,24.00
2017-06-11T07:15:26.837Z,24.00
2017-06-11T07:17:53.102Z,24.20
2017-06-11T07:20:19.365Z,24.40
2017-06-11T07:22:46.345Z,25.50
2017-06-11T07:25:12.568Z,25.40
2017-06-11T07:27:38.809Z,25.00
2017-06-11T07:30:05.053Z,24.60
2017-06-11T07:32:31.321Z,24.90
2017-06-11T07:34:58.298Z,26.00
2017-06-11T07:37:24.535Z,25.90
2017-06-11T07:39:50.778Z,26.90
2017-06-11T07:42:17.026Z,27.30
2017-06-11T07:44:43.282Z,27.60
2017-06-11T07:47:10.258Z,28.00
2017-06-11T07:49:36.522Z,28.00
2017-06-11T07:52:02.811Z,28.40
2017-06-11T07:54:29.058Z,27.40
2017-06-11T07:56:55.292Z,26.90
2017-06-11T07:59:21.537Z,26.70
2017-06-11T08:01:47.790Z,27.30
2017-06-11T08:04:14.769Z,27.10
2017-06-11T08:06:41.008Z,27.10
2017-06-11T08:09:07.302Z,28.00
2017-06-11T08:11:34.287Z,27.60
2017-06-11T08:14:00.544Z,27.60
2017-06-11T08:16:26.820Z,27.10
2017-06-11T08:18:53.071Z,27.70
2017-06-11T08:21:19.353Z,28.30
2017-06-11T08:23:45.593Z,29.00
2017-06-11T08:26:12.605Z,29.80
2017-06-11T08:28:38.856Z,29.70
2017-06-11T08:31:05.083Z,29.40
2017-06-11T08:33:31.324Z,29.30
2017-06-11T08:35:57.590Z,28.90
2017-06-11T08:38:23.845Z,29.30
2017-06-11T08:40:50.089Z,30.20
2017-06-11T08:43:16.362Z,30.50
2017-06-11T08:45:42.589Z,29.80
2017-06-11T08:48:09.595Z,29.40
2017-06-11T08:50:35.848Z,29.40
2017-06-11T08:53:02.120Z,31.00
2017-06-11T08:55:28.385Z,29.70
2017-06-11T08:57:54.665Z,29.90
2017-06-11T09:00:20.925Z,31.40
2017-06-11T09:02:47.192Z,32.60
2017-06-11T09:05:13.457Z,32.00
2017-06-11T09:07:39.694Z,31.60
2017-06-11T09:10:05.983Z,31.60
2017-06-11T09:12:32.261Z,32.00
2017-06-11T09:14:58.535Z,32.40
2017-06-11T09:17:24.801Z,31.90
2017-06-11T09:19:51.068Z,31.50
2017-06-11T09:22:17.315Z,31.60
2017-06-11T09:24:43.569Z,31.50
2017-06-11T09:27:10.557Z,33.40
2017-06-11T09:29:36.793Z,33.30
2017-06-11T09:32:03.068Z,32.90
2017-06-11T09:34:30.034Z,35.30
2017-06-11T09:36:56.288Z,35.20
2017-06-11T09:39:22.546Z,34.20
2017-06-11T09:41:48.829Z,32.70
2017-06-11T09:44:15.081Z,32.80
2017-06-11T09:46:41.330Z,33.50
2017-06-11T09:49:07.601Z,32.40
2017-06-11T09:51:34.573Z,33.70
2017-06-11T09:54:00.840Z,33.70
2017-06-11T09:56:27.070Z,32.80
2017-06-11T09:58:53.329Z,33.60
2017-06-11T10:01:20.289Z,34.80
2017-06-11T10:03:46.545Z,34.70
2017-06-11T10:06:12.832Z,35.60
2017-06-11T10:08:39.789Z,34.60
2017-06-11T10:11:06.041Z,34.60
2017-06-11T10:13:32.273Z,35.80
2017-06-11T10:15:58.541Z,36.60
2017-06-11T10:18:24.776Z,37.40
2017-06-11T10:20:50.993Z,36.90
2017-06-11T10:23:17.260Z,36.10
2017-06-11T10:25:43.510Z,35.60
2017-06-11T10:28:09.764Z,35.10
2017-06-11T10:30:36.001Z,35.60
2017-06-11T10:33:02.268Z,35.90
2017-06-11T10:35:29.264Z,35.70
2017-06-11T10:37:55.485Z,35.70
2017-06-11T10:40:21.715Z,35.30
2017-06-11T10:42:47.990Z,35.20
2017-06-11T10:45:14.246Z,34.40
2017-06-11T10:47:40.506Z,34.00
2017-06-11T10:50:06.802Z,33.40
2017-06-11T10:52:33.057Z,34.00
2017-06-11T10:54:59.297Z,34.10
2017-06-11T10:57:25.541Z,33.10
2017-06-11T10:59:51.793Z,33.30
2017-06-11T11:02:18.060Z,33.30
2017-06-11T11:04:44.316Z,33.20
2017-06-11T11:07:10.596Z,32.50
2017-06-11T11:09:37.636Z,32.50
2017-06-11T11:12:04.685Z,32.20
2017-06-11T11:14:46.669Z,32.20
2017-06-11T11:17:12.935Z,32.10
2017-06-11T11:19:39.205Z,31.50
2017-06-11T11:22:05.481Z,30.90
2017-06-11T11:24:32.485Z,30.70
2017-06-11T11:26:58.729Z,30.70
2017-06-11T11:29:25.005Z,30.80
2017-06-11T11:31:51.246Z,30.60
2017-06-11T11:34:17.499Z,30.00
2017-06-11T11:36:43.719Z,30.00
2017-06-11T11:39:10.030Z,29.70
2017-06-11T11:41:36.340Z,29.40
2017-06-11T11:44:03.338Z,29.50
2017-06-11T11:46:29.600Z,29.50
2017-06-11T11:48:56.588Z,29.40
2017-06-11T11:51:22.848Z,29.40
2017-06-11T11:53:49.068Z,29.20
2017-06-11T11:56:15.298Z,28.90
2017-06-11T11:58:41.556Z,29.20
2017-06-11T12:01:08.556Z,29.60
2017-06-11T12:03:34.797Z,29.60
2017-06-11T12:06:01.068Z,29.50
2017-06-11T12:08:28.086Z,29.90
2017-06-11T12:10:54.348Z,29.90
2017-06-11T12:13:36.305Z,29.70
2017-06-11T12:16:02.557Z,29.60
2017-06-11T12:18:28.785Z,28.80
2017-06-11T12:20:55.027Z,28.80
2017-06-11T12:23:21.982Z,29.00
2017-06-11T12:25:48.983Z,29.20
2017-06-11T12:28:15.231Z,29.30
2017-06-11T12:30:41.522Z,29.00
2017-06-11T12:33:07.771Z,29.30
2017-06-11T12:35:34.013Z,29.50
2017-06-11T12:38:00.263Z,29.80
2017-06-11T12:40:26.505Z,29.80
2017-06-11T12:42:53.530Z,30.20
2017-06-11T12:45:19.774Z,30.20
2017-06-11T12:47:47.219Z,29.60
2017-06-11T12:50:13.484Z,29.60
2017-06-11T12:52:39.717Z,29.80
2017-06-11T12:55:06.002Z,29.60
2017-06-11T12:57:32.278Z,29.80
2017-06-11T12:59:58.501Z,29.90
2017-06-11T13:02:24.735Z,30.00
2017-06-11T13:04:50.997Z,29.90
2017-06-11T13:07:17.221Z,30.10
2017-06-11T13:09:43.471Z,30.60
2017-06-11T13:12:09.729Z,30.40
2017-06-11T13:14:36.753Z,29.80
2017-06-11T13:17:03.004Z,29.80
2017-06-11T13:19:30.017Z,29.50
2017-06-11T13:21:56.272Z,29.40
2017-06-11T13:24:22.576Z,29.60
2017-06-11T13:26:48.801Z,29.40
2017-06-11T13:29:15.074Z,29.60
2017-06-11T13:31:42.045Z,29.60
2017-06-11T13:34:08.326Z,29.50
2017-06-11T13:36:34.548Z,29.70
2017-06-11T13:39:00.789Z,30.00
2017-06-11T13:41:27.054Z,30.30
2017-06-11T13:43:53.312Z,30.10
2017-06-11T13:46:19.546Z,30.20
2017-06-11T13:48:45.833Z,30.30
2017-06-11T13:51:12.056Z,30.60
2017-06-11T13:53:39.045Z,30.20
2017-06-11T13:56:05.292Z,30.20
2017-06-11T13:58:31.594Z,30.60
2017-06-11T14:00:57.821Z,30.80
2017-06-11T14:03:24.095Z,30.40
2017-06-11T14:05:50.332Z,30.50
2017-06-11T14:08:17.332Z,30.70
2017-06-11T14:10:43.594Z,30.70
2017-06-11T14:13:09.899Z,30.20
2017-06-11T14:15:36.126Z,29.90
2017-06-11T14:18:02.340Z,30.10
2017-06-11T14:20:35.549Z,30.40
2017-06-11T14:23:01.828Z,30.30
2017-06-11T14:25:36.566Z,30.30
2017-06-11T14:28:02.843Z,30.40
2017-06-11T14:30:29.063Z,30.40
2017-06-11T14:32:55.331Z,30.30
2017-06-11T14:35:22.297Z,30.50
2017-06-11T14:37:48.562Z,30.50
2017-06-11T14:40:14.832Z,30.80
2017-06-11T14:42:41.082Z,30.90
2017-06-11T14:45:08.102Z,30.60
2017-06-11T14:47:34.347Z,30.60
2017-06-11T14:50:01.336Z,30.40
2017-06-11T14:52:27.597Z,30.40
2017-06-11T14:54:53.861Z,30.60
2017-06-11T14:57:20.880Z,30.50
2017-06-11T14:59:47.145Z,30.50
2017-06-11T15:02:13.360Z,30.40
2017-06-11T15:04:40.353Z,30.30
2017-06-11T15:07:06.622Z,30.30
2017-06-11T15:09:32.857Z,30.40
2017-06-11T15:11:59.084Z,30.40
2017-06-11T15:14:25.327Z,30.30
2017-06-11T15:16:52.346Z,30.00
2017-06-11T15:19:18.633Z,30.00
2017-06-11T15:21:44.861Z,29.80
2017-06-11T15:24:11.174Z,29.80
2017-06-11T15:26:37.426Z,30.10
2017-06-11T15:29:03.660Z,30.10
2017-06-11T15:31:29.941Z,30.30
2017-06-11T15:33:56.913Z,30.10
2017-06-11T15:36:23.177Z,30.00
2017-06-11T15:38:49.458Z,30.20
2017-06-11T15:41:16.442Z,29.90
2017-06-11T15:43:42.710Z,30.00
2017-06-11T15:46:08.932Z,29.90
2017-06-11T15:48:35.206Z,29.80
2017-06-11T15:51:01.433Z,29.70
2017-06-11T15:53:27.685Z,29.60
2017-06-11T15:55:53.905Z,29.50
2017-06-11T15:58:20.165Z,29.40
2017-06-11T16:00:46.455Z,29.60
2017-06-11T16:03:12.682Z,29.60
2017-06-11T16:05:38.924Z,30.00
2017-06-11T16:08:05.156Z,30.10
2017-06-11T16:10:31.428Z,30.20
2017-06-11T16:12:57.652Z,30.10
2017-06-11T16:15:23.896Z,30.10
2017-06-11T16:17:50.150Z,29.80
2017-06-11T16:20:16.385Z,29.70
2017-06-11T16:22:42.630Z,29.80
2017-06-11T16:25:08.905Z,29.90
2017-06-11T16:27:35.141Z,29.80
2017-06-11T16:30:01.405Z,29.80
2017-06-11T16:32:27.624Z,29.80
2017-06-11T16:34:53.866Z,29.70
2017-06-11T16:37:20.116Z,29.70
2017-06-11T16:39:46.344Z,29.60
2017-06-11T16:42:12.593Z,29.70
2017-06-11T16:44:38.857Z,29.60
2017-06-11T16:47:05.836Z,29.70
2017-06-11T16:49:32.080Z,29.70
2017-06-11T16:51:58.309Z,29.60
2017-06-11T16:54:24.557Z,29.40
2017-06-11T16:56:50.772Z,29.30
2017-06-11T16:59:16.993Z,29.10
2017-06-11T17:01:50.053Z,29.00
2017-06-11T17:04:16.282Z,29.00
2017-06-11T17:06:42.521Z,28.90
2017-06-11T17:09:08.757Z,28.80
2017-06-11T17:11:35.004Z,28.70
2017-06-11T17:14:01.261Z,28.70
2017-06-11T17:16:27.498Z,28.60
2017-06-11T17:18:53.740Z,28.50
2017-06-11T17:21:20.759Z,28.40
2017-06-11T17:23:47.078Z,28.40
2017-06-11T17:26:13.340Z,28.30
2017-06-11T17:28:40.337Z,28.30
2017-06-11T17:31:06.620Z,28.20
2017-06-11T17:33:33.632Z,28.30
2017-06-11T17:35:59.865Z,28.30
2017-06-11T17:38:26.113Z,28.30
2017-06-11T17:40:53.073Z,28.30
2017-06-11T17:43:20.069Z,28.30
2017-06-11T17:45:46.345Z,28.30
2017-06-11T17:48:12.593Z,28.20
2017-06-11T17:50:38.918Z,28.10
2017-06-11T17:53:05.154Z,28.00
2017-06-11T17:55:31.421Z,27.90
2017-06-11T17:57:57.662Z,27.70
2017-06-11T18:00:23.943Z,27.70
2017-06-11T18:02:50.180Z,27.70
2017-06-11T18:05:16.461Z,27.60
2017-06-11T18:07:43.225Z,27.50
2017-06-11T18:10:10.216Z,27.20
2017-06-11T18:12:36.513Z,27.20
2017-06-11T18:15:02.821Z,27.20
2017-06-11T18:17:30.214Z,27.30
2017-06-11T18:19:59.725Z,27.20
2017-06-11T18:22:25.957Z,27.20
2017-06-11T18:24:53.609Z,27.10
2017-06-11T18:27:19.885Z,27.00
2017-06-11T18:29:47.591Z,26.90
2017-06-11T18:32:14.410Z,26.70
2017-06-11T18:34:41.560Z,26.40
2017-06-11T18:37:08.580Z,26.30
2017-06-11T18:39:34.846Z,26.20
2017-06-11T18:42:01.873Z,26.20
2017-06-11T18:44:28.120Z,26.10
2017-06-11T18:46:55.110Z,25.90
2017-06-11T18:49:21.398Z,25.80
2017-06-11T18:51:48.387Z,25.60
2017-06-11T18:54:14.641Z,25.60
2017-06-11T18:56:40.878Z,25.50
2017-06-11T18:59:07.153Z,25.40
2017-06-11T19:01:33.416Z,25.30
2017-06-11T19:03:59.663Z,25.20
2017-06-11T19:06:30.124Z,25.20
2017-06-11T19:09:03.957Z,25.10
2017-06-11T19:11:30.197Z,25.00
2017-06-11T19:13:56.437Z,24.90
2017-06-11T19:16:22.742Z,24.80
2017-06-11T19:18:49.005Z,24.80
2017-06-11T19:21:15.242Z,24.70
2017-06-11T19:23:41.509Z,24.60
2017-06-11T19:26:07.756Z,24.60
2017-06-11T19:28:34.070Z,24.50
2017-06-11T19:31:01.106Z,24.50
2017-06-11T19:33:28.105Z,24.40
2017-06-11T19:35:54.332Z,24.40
2017-06-11T19:38:20.620Z,24.40
2017-06-11T19:40:47.645Z,24.30
2017-06-11T19:43:13.925Z,24.30
2017-06-11T19:45:40.214Z,24.30
2017-06-11T19:48:07.224Z,24.20
2017-06-11T19:50:33.530Z,24.20
2017-06-11T19:52:59.815Z,24.20
2017-06-11T19:55:26.149Z,24.10
2017-06-11T19:57:52.393Z,24.10
2017-06-11T20:00:19.439Z,24.00
2017-06-11T20:02:46.427Z,24.00
2017-06-11T20:05:12.691Z,23.90
2017-06-11T20:07:38.973Z,24.00
2017-06-11T20:10:05.237Z,23.90
2017-06-11T20:12:33.221Z,24.00
2017-06-11T20:15:00.246Z,24.00
2017-06-11T20:17:26.480Z,24.00
2017-06-11T20:19:52.785Z,23.70
2017-06-11T20:22:19.050Z,23.60
2017-06-11T20:24:45.319Z,23.50
2017-06-11T20:27:11.593Z,23.40
2017-06-11T20:29:38.701Z,23.20
2017-06-11T20:32:04.955Z,23.20
2017-06-11T20:34:31.180Z,23.20
2017-06-11T20:36:57.492Z,23.10
2017-06-11T20:39:23.744Z,23.10
2017-06-11T20:41:50.005Z,23.10
2017-06-11T20:44:16.284Z,23.10
2017-06-11T20:46:42.516Z,23.00
2017-06-11T20:49:08.794Z,23.00
2017-06-11T20:51:35.039Z,23.10
2017-06-11T20:54:01.288Z,23.10
2017-06-11T20:56:27.566Z,23.10
2017-06-11T20:58:53.815Z,23.10
2017-06-11T21:01:20.070Z,23.00
2017-06-11T21:03:47.086Z,23.00
2017-06-11T21:06:13.352Z,23.00
2017-06-11T21:08:39.601Z,22.90
2017-06-11T21:11:05.836Z,22.90
2017-06-11T21:13:32.086Z,22.80
2017-06-11T21:15:58.331Z,22.80
2017-06-11T21:18:24.701Z,22.70
2017-06-11T21:20:50.953Z,22.70
2017-06-11T21:23:17.216Z,22.60
2017-06-11T21:25:43.494Z,22.60
2017-06-11T21:28:09.716Z,22.50
2017-06-11T21:30:35.992Z,22.50
2017-06-11T21:33:02.245Z,22.40
2017-06-11T21:35:28.492Z,22.30
2017-06-11T21:37:55.494Z,22.20
2017-06-11T21:40:21.785Z,22.20
2017-06-11T21:42:48.044Z,22.30
2017-06-11T21:45:14.321Z,22.30
2017-06-11T21:47:41.308Z,22.10
2017-06-11T21:50:07.549Z,22.00
2017-06-11T21:52:33.801Z,22.10
2017-06-11T21:55:00.045Z,22.00
2017-06-11T21:57:26.313Z,21.90
2017-06-11T21:59:52.557Z,21.90
2017-06-11T22:02:18.823Z,21.90
2017-06-11T22:04:45.058Z,21.80
2017-06-11T22:07:11.345Z,21.80
2017-06-11T22:09:37.620Z,21.70
2017-06-11T22:12:03.832Z,21.70
2017-06-11T22:14:30.100Z,21.70
2017-06-11T22:16:57.082Z,21.70
2017-06-11T22:19:23.317Z,21.70
2017-06-11T22:21:49.586Z,21.60
2017-06-11T22:24:15.829Z,21.60
2017-06-11T22:26:42.824Z,21.60
2017-06-11T22:29:09.049Z,21.60
2017-06-11T22:31:35.320Z,21.60
2017-06-11T22:34:02.380Z,21.50
2017-06-11T22:36:29.362Z,21.50
2017-06-11T22:38:55.650Z,21.50
2017-06-11T22:41:22.634Z,21.50
2017-06-11T22:43:48.897Z,21.50
2017-06-11T22:46:15.165Z,21.50
2017-06-11T22:48:42.137Z,21.60
2017-06-11T22:51:08.380Z,21.50
2017-06-11T22:53:34.629Z,21.60
2017-06-11T22:56:00.913Z,21.60
2017-06-11T22:58:27.153Z,21.60
2017-06-11T23:00:53.391Z,21.60
2017-06-11T23:03:26.508Z,21.50
2017-06-11T23:05:52.777Z,21.50
2017-06-11T23:08:19.744Z,21.50
2017-06-11T23:10:45.985Z,21.50
2017-06-11T23:13:12.252Z,21.50
2017-06-11T23:15:38.493Z,21.50
2017-06-11T23:18:04.737Z,21.50
2017-06-11T23:20:31.720Z,21.40
2017-06-11T23:22:57.965Z,21.40
2017-06-11T23:25:24.218Z,21.40
2017-06-11T23:27:50.440Z,21.30
2017-06-11T23:30:16.711Z,21.20
2017-06-11T23:32:42.942Z,21.10
2017-06-11T23:35:09.200Z,21.00
2017-06-11T23:37:35.454Z,20.80
2017-06-11T23:40:01.708Z,20.80
2017-06-11T23:42:27.957Z,20.80
2017-06-11T23:44:54.213Z,20.70
2017-06-11T23:47:20.460Z,20.70
2017-06-11T23:49:46.718Z,20.70
2017-06-11T23:52:12.964Z,20.60
2017-06-11T23:54:39.952Z,20.60
2017-06-11T23:57:06.437Z,20.60
2017-06-11T23:59:33.425Z,20.60
